TimeMST,TemperatureF,Dew PointF,Humidity,Sea Level PressureIn,VisibilityMPH,Wind Direction,Wind SpeedMPH,Gust SpeedMPH,PrecipitationIn,Events,Conditions,WindDirDegrees,DateUTC
12:53 AM,17.1,14.0,88,30.02,10.0,West,20.7,-,N/A,,Clear,280,2013-01-01 07:53:00
1:53 AM,19.0,14.0,81,30.03,10.0,WNW,25.3,38.0,N/A,,Clear,290,2013-01-01 08:53:00
2:53 AM,17.1,12.0,81,30.04,10.0,WNW,23.0,28.8,N/A,,Clear,300,2013-01-01 09:53:00
3:53 AM,16.0,10.9,81,30.06,10.0,WNW,23.0,-,0.01,,Clear,300,2013-01-01 10:53:00
4:53 AM,16.0,10.9,81,30.07,10.0,WNW,24.2,-,N/A,,Clear,290,2013-01-01 11:53:00
5:53 AM,15.1,9.0,77,30.13,10.0,WNW,20.7,-,N/A,,Clear,300,2013-01-01 12:53:00
6:53 AM,15.1,10.0,80,30.14,10.0,WNW,21.9,-,N/A,,Clear,300,2013-01-01 13:53:00
7:53 AM,17.1,10.9,77,30.18,10.0,WNW,20.7,26.5,N/A,,Clear,300,2013-01-01 14:53:00
8:53 AM,19.0,12.0,74,30.19,10.0,WNW,16.1,-,N/A,,Clear,300,2013-01-01 15:53:00
9:53 AM,21.9,12.0,66,30.20,10.0,WNW,20.7,27.6,N/A,,Clear,300,2013-01-01 16:53:00
10:53 AM,24.1,12.0,60,30.19,10.0,WNW,23.0,-,N/A,,Clear,290,2013-01-01 17:53:00
11:53 AM,26.1,12.0,55,30.16,10.0,WNW,20.7,-,N/A,,Clear,300,2013-01-01 18:53:00
12:53 PM,27.0,10.0,49,30.13,10.0,NW,18.4,-,N/A,,Clear,310,2013-01-01 19:53:00
1:53 PM,27.0,10.9,51,30.11,10.0,WNW,18.4,-,N/A,,Clear,290,2013-01-01 20:53:00
2:53 PM,28.0,10.0,47,30.12,10.0,NW,19.6,24.2,N/A,,Clear,310,2013-01-01 21:53:00
3:53 PM,26.1,10.0,51,30.16,10.0,NW,17.3,23.0,N/A,,Clear,310,2013-01-01 22:53:00
4:53 PM,21.9,9.0,58,30.20,10.0,WNW,20.7,-,N/A,,Clear,300,2013-01-01 23:53:00
5:53 PM,17.1,7.0,65,30.23,10.0,WNW,16.1,-,N/A,,Clear,300,2013-01-02 00:53:00
6:53 PM,17.1,6.1,62,30.26,10.0,Calm,Calm,-,N/A,,Clear,0,2013-01-02 01:53:00
7:53 PM,16.0,6.1,65,30.25,10.0,NW,12.7,-,N/A,,Clear,320,2013-01-02 02:53:00
8:53 PM,10.9,5.0,77,30.28,10.0,WNW,10.4,-,N/A,,Clear,300,2013-01-02 03:53:00
9:53 PM,12.0,6.1,77,30.26,10.0,NW,9.2,-,N/A,,Clear,310,2013-01-02 04:53:00
10:53 PM,6.1,3.0,87,30.27,10.0,NW,10.4,-,N/A,,Clear,310,2013-01-02 05:53:00
11:53 PM,8.1,3.9,83,30.27,10.0,West,11.5,-,N/A,,Clear,270,2013-01-02 06:53:00